createdAt,value
2022-09-15T00:01:11.699Z,8.18
2022-09-15T00:03:48.390Z,8.35
2022-09-15T00:06:16.146Z,7.60
2022-09-15T00:08:44.594Z,9.00
2022-09-15T00:11:15.829Z,8.32
2022-09-15T00:13:44.018Z,8.88
2022-09-15T00:16:15.254Z,9.45
2022-09-15T00:18:44.379Z,8.90
2022-09-15T00:21:17.838Z,9.35
2022-09-15T00:23:46.330Z,9.23
2022-09-15T00:26:15.974Z,8.77
2022-09-15T00:28:44.516Z,8.65
2022-09-15T00:31:18.553Z,8.50
2022-09-15T00:33:52.724Z,8.32
2022-09-15T00:36:20.726Z,10.18
2022-09-15T00:38:48.573Z,9.57
2022-09-15T00:41:21.639Z,9.63
2022-09-15T00:43:58.374Z,10.05
2022-09-15T00:46:41.885Z,9.32
2022-09-15T00:49:13.719Z,9.40
2022-09-15T00:52:03.263Z,10.10
2022-09-15T00:54:36.657Z,9.90
2022-09-15T00:59:40.713Z,9.75
2022-09-15T01:02:22.146Z,10.65
2022-09-15T01:04:56.018Z,10.02
2022-09-15T01:07:32.741Z,9.00
2022-09-15T01:10:05.874Z,9.45
2022-09-15T01:12:33.460Z,9.25
2022-09-15T01:15:02.046Z,9.55
2022-09-15T01:18:04.077Z,10.95
2022-09-15T01:21:08.772Z,11.63
2022-09-15T01:24:14.321Z,11.98
2022-09-15T01:26:46.799Z,11.18
2022-09-15T01:29:39.338Z,12.48
2022-09-15T01:32:34.619Z,11.73
2022-09-15T01:35:22.514Z,12.48
2022-09-15T01:37:56.048Z,12.38
2022-09-15T01:40:25.222Z,12.82
2022-09-15T01:42:56.094Z,12.10
2022-09-15T01:45:30.414Z,11.93
2022-09-15T01:47:59.170Z,11.60
2022-09-15T01:50:31.719Z,12.20
2022-09-15T01:53:01.949Z,11.85
2022-09-15T01:55:49.400Z,12.13
2022-09-15T01:58:17.012Z,12.18
2022-09-15T02:00:50.195Z,11.57
2022-09-15T02:03:22.818Z,12.05
2022-09-15T02:06:03.055Z,12.38
2022-09-15T02:08:36.822Z,11.27
2022-09-15T02:11:18.063Z,11.48
2022-09-15T02:14:00.252Z,13.52
2022-09-15T02:16:32.527Z,13.30
2022-09-15T02:19:11.711Z,12.98
2022-09-15T02:21:55.073Z,13.52
2022-09-15T02:24:32.741Z,14.63
2022-09-15T02:27:01.318Z,13.43
2022-09-15T02:29:30.578Z,14.63
2022-09-15T02:32:02.662Z,14.55
2022-09-15T02:34:36.560Z,13.35
2022-09-15T02:37:05.078Z,14.23
2022-09-15T02:39:36.231Z,13.60
2022-09-15T02:42:04.259Z,15.05
2022-09-15T02:44:32.258Z,15.98
2022-09-15T02:47:00.729Z,14.25
2022-09-15T02:49:28.543Z,14.50
2022-09-15T02:51:55.889Z,14.93
2022-09-15T02:54:23.208Z,14.45
2022-09-15T02:56:50.891Z,14.30
2022-09-15T02:59:18.154Z,14.68
2022-09-15T03:01:45.557Z,15.25
2022-09-15T03:04:13.233Z,16.10
2022-09-15T03:06:40.558Z,15.52
2022-09-15T03:09:08.473Z,15.77
2022-09-15T03:11:37.098Z,17.10
2022-09-15T03:14:06.118Z,17.85
2022-09-15T03:16:35.103Z,18.88
2022-09-15T03:19:03.463Z,17.00
2022-09-15T03:21:31.407Z,18.38
2022-09-15T03:23:59.270Z,17.25
2022-09-15T03:26:26.931Z,18.15
2022-09-15T03:28:54.322Z,17.92
2022-09-15T03:31:21.654Z,17.88
2022-09-15T03:33:49.804Z,18.13
2022-09-15T03:36:17.334Z,19.58
2022-09-15T03:38:44.762Z,19.02
2022-09-15T03:41:13.102Z,18.90
2022-09-15T03:43:41.613Z,18.50
2022-09-15T03:46:11.769Z,17.98
2022-09-15T03:48:40.665Z,17.80
2022-09-15T03:51:08.979Z,19.83
2022-09-15T03:53:39.152Z,19.48
2022-09-15T03:56:13.857Z,18.42
2022-09-15T03:58:41.264Z,18.33
2022-09-15T04:01:09.432Z,18.08
2022-09-15T04:03:42.730Z,19.20
2022-09-15T04:06:13.351Z,18.85
2022-09-15T04:08:40.788Z,18.42
2022-09-15T04:11:09.731Z,19.25
2022-09-15T04:13:39.200Z,18.55
2022-09-15T04:16:09.444Z,17.85
2022-09-15T04:18:37.352Z,16.50
2022-09-15T04:21:11.712Z,16.92
2022-09-15T04:23:40.693Z,15.57
2022-09-15T04:26:31.617Z,15.05
2022-09-15T04:29:03.935Z,16.77
2022-09-15T04:31:33.655Z,17.83
2022-09-15T04:34:01.504Z,16.60
2022-09-15T04:36:29.990Z,15.30
2022-09-15T04:38:58.464Z,16.10
2022-09-15T04:41:26.533Z,17.42
2022-09-15T04:43:54.372Z,17.58
2022-09-15T04:46:22.490Z,16.98
2022-09-15T04:48:49.932Z,16.50
2022-09-15T04:51:20.482Z,16.70
2022-09-15T04:53:48.507Z,15.68
2022-09-15T04:56:18.082Z,15.90
2022-09-15T04:58:47.603Z,15.85
2022-09-15T05:01:21.392Z,16.52
2022-09-15T05:03:50.020Z,16.25
2022-09-15T05:06:21.565Z,14.75
2022-09-15T05:08:50.577Z,15.50
2022-09-15T05:11:18.478Z,15.10
2022-09-15T05:13:46.820Z,14.00
2022-09-15T05:16:17.570Z,13.93
2022-09-15T05:18:46.589Z,13.23
2022-09-15T05:21:17.011Z,14.43
2022-09-15T05:23:44.705Z,12.85
2022-09-15T05:26:14.164Z,13.27
2022-09-15T05:28:42.431Z,12.88
2022-09-15T05:31:11.828Z,13.13
2022-09-15T05:33:39.822Z,13.10
2022-09-15T05:36:07.635Z,11.63
2022-09-15T05:38:35.266Z,13.20
2022-09-15T05:41:13.798Z,12.85
2022-09-15T05:43:41.475Z,11.65
2022-09-15T05:46:10.455Z,10.45
2022-09-15T05:48:38.003Z,11.45
2022-09-15T05:51:06.013Z,10.18
2022-09-15T05:53:35.101Z,11.48
2022-09-15T05:56:13.943Z,12.07
2022-09-15T05:58:43.460Z,11.98
2022-09-15T06:01:25.725Z,11.93
2022-09-15T06:03:54.795Z,11.10
2022-09-15T06:06:23.297Z,11.00
2022-09-15T06:08:58.010Z,11.18
2022-09-15T06:11:29.306Z,10.73
2022-09-15T06:14:03.388Z,10.68
2022-09-15T06:16:34.032Z,10.70
2022-09-15T06:19:02.610Z,10.70
2022-09-15T06:21:31.487Z,10.27
2022-09-15T06:24:01.848Z,10.52
2022-09-15T06:26:30.078Z,10.82
2022-09-15T06:29:02.770Z,10.90
2022-09-15T06:31:33.035Z,9.95
2022-09-15T06:34:10.226Z,10.57
2022-09-15T06:36:39.229Z,10.88
2022-09-15T06:39:06.925Z,10.15
2022-09-15T06:41:58.359Z,10.48
2022-09-15T06:44:23.403Z,8.63
2022-09-15T06:46:50.962Z,9.75
2022-09-15T06:49:19.255Z,8.60
2022-09-15T06:51:46.875Z,8.98
2022-09-15T06:54:16.228Z,8.38
2022-09-15T06:56:45.097Z,8.80
2022-09-15T06:59:13.908Z,8.00
2022-09-15T07:01:54.561Z,7.85
2022-09-15T07:04:23.003Z,7.70
2022-09-15T07:06:53.164Z,8.80
2022-09-15T07:09:20.709Z,7.22
2022-09-15T07:11:48.336Z,7.55
2022-09-15T07:14:15.681Z,6.82
2022-09-15T07:16:43.185Z,7.57
2022-09-15T07:19:11.037Z,7.22
2022-09-15T07:21:38.393Z,6.20
2022-09-15T07:24:07.614Z,6.45
2022-09-15T07:26:35.500Z,6.22
2022-09-15T07:29:06.903Z,6.15
2022-09-15T07:31:37.102Z,5.47
2022-09-15T07:34:05.691Z,5.47
2022-09-15T07:36:33.299Z,4.55
2022-09-15T07:39:00.871Z,5.32
2022-09-15T07:41:30.007Z,4.50
2022-09-15T07:43:59.870Z,4.47
2022-09-15T07:46:31.314Z,5.07
2022-09-15T07:48:59.173Z,5.30
2022-09-15T07:51:27.024Z,3.55
2022-09-15T07:53:54.972Z,4.07
2022-09-15T07:56:23.983Z,3.30
2022-09-15T07:58:51.439Z,3.42
2022-09-15T08:01:19.978Z,3.78
2022-09-15T08:03:49.840Z,2.67
2022-09-15T08:06:20.107Z,3.33
2022-09-15T08:08:47.569Z,2.80
2022-09-15T08:11:19.439Z,2.70
2022-09-15T08:13:52.567Z,3.22
2022-09-15T08:16:23.155Z,2.85
2022-09-15T08:18:52.917Z,2.50
2022-09-15T08:21:21.324Z,2.30
2022-09-15T08:23:58.551Z,2.40
2022-09-15T08:26:27.588Z,1.90
2022-09-15T08:28:55.002Z,1.77
2022-09-15T08:31:24.259Z,2.72
2022-09-15T08:33:54.343Z,2.25
2022-09-15T08:36:22.206Z,2.50
2022-09-15T08:38:49.675Z,1.80
2022-09-15T08:41:24.403Z,1.90
2022-09-15T08:43:56.636Z,2.15
2022-09-15T08:46:28.598Z,1.88
2022-09-15T08:49:04.293Z,1.90
2022-09-15T08:51:43.833Z,2.05
2022-09-15T08:54:22.011Z,2.55
2022-09-15T08:56:49.879Z,1.90
2022-09-15T08:59:18.755Z,2.05
2022-09-15T09:01:52.546Z,2.00
2022-09-15T09:04:32.254Z,1.90
2022-09-15T09:07:14.898Z,2.00
2022-09-15T09:09:50.148Z,2.40
2022-09-15T09:12:54.708Z,2.28
2022-09-15T09:15:34.557Z,2.10
2022-09-15T09:18:20.611Z,2.15
2022-09-15T09:20:55.823Z,2.10
2022-09-15T09:23:26.801Z,1.88
2022-09-15T09:25:56.439Z,1.70
2022-09-15T09:28:40.106Z,1.55
2022-09-15T09:33:47.791Z,1.50
2022-09-15T09:36:15.794Z,1.67
2022-09-15T09:38:45.012Z,1.52
2022-09-15T09:41:18.020Z,1.48
2022-09-15T09:43:47.671Z,1.15
2022-09-15T09:46:20.282Z,1.63
2022-09-15T09:49:12.923Z,1.30
2022-09-15T09:51:50.789Z,1.55
2022-09-15T09:54:20.740Z,1.70
2022-09-15T09:56:53.301Z,1.63
2022-09-15T09:59:35.210Z,1.60
2022-09-15T10:02:11.581Z,1.67
2022-09-15T10:04:44.252Z,1.80
2022-09-15T10:07:12.315Z,1.67
2022-09-15T10:09:41.070Z,1.83
2022-09-15T10:12:19.360Z,1.90
2022-09-15T10:14:52.638Z,1.60
2022-09-15T10:17:22.963Z,1.40
2022-09-15T10:19:54.639Z,1.40
2022-09-15T10:22:23.951Z,1.60
2022-09-15T10:24:51.778Z,1.75
2022-09-15T10:27:34.153Z,2.05
2022-09-15T10:30:21.135Z,1.63
2022-09-15T10:32:48.749Z,1.90
2022-09-15T10:35:18.919Z,1.85
2022-09-15T10:38:20.260Z,1.33
2022-09-15T10:41:09.724Z,1.85
2022-09-15T10:43:37.165Z,1.85
2022-09-15T10:46:29.168Z,1.40
2022-09-15T10:49:18.502Z,2.05
2022-09-15T10:52:11.383Z,1.40
2022-09-15T10:55:22.013Z,2.30
2022-09-15T10:58:29.581Z,1.88
2022-09-15T11:01:15.629Z,1.70
2022-09-15T11:03:52.026Z,1.65
2022-09-15T11:06:26.000Z,1.80
2022-09-15T11:09:09.005Z,1.88
2022-09-15T11:12:03.038Z,1.58
2022-09-15T11:14:39.826Z,2.42
2022-09-15T11:17:44.898Z,1.80
2022-09-15T11:20:40.297Z,1.80
2022-09-15T11:23:13.889Z,2.00
2022-09-15T11:25:44.840Z,2.47
2022-09-15T11:28:23.102Z,1.70
2022-09-15T11:31:00.870Z,2.15
2022-09-15T11:33:46.997Z,1.90
2022-09-15T11:36:21.003Z,2.00
2022-09-15T11:38:59.815Z,2.20
2022-09-15T11:41:41.977Z,1.60
2022-09-15T11:44:16.759Z,2.00
2022-09-15T11:47:14.973Z,1.95
2022-09-15T11:49:49.261Z,1.80
2022-09-15T11:52:41.517Z,2.05
2022-09-15T11:55:39.497Z,2.08
2022-09-15T11:58:32.454Z,2.10
2022-09-15T12:01:04.071Z,2.03
2022-09-15T12:03:38.011Z,2.70
2022-09-15T12:06:14.876Z,2.50
2022-09-15T12:08:44.489Z,2.35
2022-09-15T12:11:17.780Z,2.17
2022-09-15T12:13:45.899Z,1.90
2022-09-15T12:16:14.308Z,3.05
2022-09-15T12:18:52.560Z,2.60
2022-09-15T12:21:38.949Z,1.80
2022-09-15T12:24:34.080Z,2.72
2022-09-15T12:27:02.491Z,2.22
2022-09-15T12:29:41.213Z,2.03
2022-09-15T12:32:33.393Z,1.50
2022-09-15T12:35:19.665Z,2.28
2022-09-15T12:37:49.300Z,2.30
2022-09-15T12:40:39.750Z,2.08
2022-09-15T12:43:13.601Z,1.77
2022-09-15T12:45:43.039Z,2.05
2022-09-15T12:48:27.463Z,2.25
2022-09-15T12:51:00.300Z,2.58
2022-09-15T12:56:08.323Z,1.67
2022-09-15T12:58:40.711Z,1.85
2022-09-15T13:01:26.755Z,1.88
2022-09-15T13:04:00.760Z,1.55
2022-09-15T13:06:35.359Z,2.25
2022-09-15T13:09:05.888Z,2.35
2022-09-15T13:11:53.792Z,2.20
2022-09-15T13:14:33.934Z,2.13
2022-09-15T13:17:07.666Z,2.30
2022-09-15T13:19:46.121Z,2.00
2022-09-15T13:22:35.020Z,2.08
2022-09-15T13:25:11.389Z,2.47
2022-09-15T13:27:51.966Z,2.30
2022-09-15T13:30:25.467Z,2.47
2022-09-15T13:33:15.876Z,2.10
2022-09-15T13:35:52.620Z,1.80
2022-09-15T13:38:36.180Z,2.38
2022-09-15T13:41:27.561Z,2.22
2022-09-15T13:44:21.250Z,2.03
2022-09-15T13:47:15.537Z,2.00
2022-09-15T13:50:20.639Z,2.08
2022-09-15T13:53:25.790Z,2.33
2022-09-15T13:55:57.156Z,1.90
2022-09-15T14:01:14.476Z,2.40
2022-09-15T14:03:42.306Z,2.28
2022-09-15T14:06:16.258Z,2.00
2022-09-15T14:08:46.270Z,1.73
2022-09-15T14:11:15.371Z,2.10
2022-09-15T14:13:47.898Z,2.10
2022-09-15T14:16:26.530Z,2.47
2022-09-15T14:18:56.060Z,2.30
2022-09-15T14:21:30.543Z,2.30
2022-09-15T14:24:04.609Z,2.30
2022-09-15T14:26:34.682Z,2.13
2022-09-15T14:29:04.892Z,2.40
2022-09-15T14:31:33.625Z,2.22
2022-09-15T14:34:05.903Z,2.70
2022-09-15T14:36:34.762Z,2.25
2022-09-15T14:39:21.994Z,2.08
2022-09-15T14:41:50.833Z,2.33
2022-09-15T14:47:19.442Z,2.20
2022-09-15T14:49:47.238Z,2.47
2022-09-15T14:52:25.091Z,2.15
2022-09-15T14:54:56.768Z,2.28
2022-09-15T14:57:30.186Z,1.88
2022-09-15T15:00:07.172Z,2.70
2022-09-15T15:02:57.131Z,2.42
2022-09-15T15:05:28.674Z,2.22
2022-09-15T15:07:57.116Z,1.80
2022-09-15T15:10:27.996Z,1.88
2022-09-15T15:13:02.357Z,2.42
2022-09-15T15:15:31.750Z,2.45
2022-09-15T15:17:59.675Z,2.50
2022-09-15T15:20:30.496Z,2.00
2022-09-15T15:23:11.653Z,1.95
2022-09-15T15:25:39.608Z,2.47
2022-09-15T15:28:07.704Z,2.42
2022-09-15T15:30:43.227Z,2.15
2022-09-15T15:33:29.732Z,2.08
2022-09-15T15:36:15.574Z,2.35
2022-09-15T15:38:48.064Z,2.25
2022-09-15T15:41:27.030Z,2.58
2022-09-15T15:44:07.831Z,2.78
2022-09-15T15:46:54.964Z,2.00
2022-09-15T15:49:27.585Z,3.17
2022-09-15T15:51:55.603Z,2.08
2022-09-15T15:54:23.795Z,2.28
2022-09-15T15:56:52.219Z,2.42
2022-09-15T15:59:20.331Z,2.55
2022-09-15T16:01:51.876Z,2.58
2022-09-15T16:04:19.725Z,2.40
2022-09-15T16:06:47.966Z,2.40
2022-09-15T16:09:17.169Z,2.85
2022-09-15T16:11:47.943Z,2.60
2022-09-15T16:14:15.670Z,2.35
2022-09-15T16:16:43.140Z,2.30
2022-09-15T16:19:11.538Z,2.65
2022-09-15T16:21:42.692Z,2.40
2022-09-15T16:24:14.166Z,2.95
2022-09-15T16:26:42.883Z,2.35
2022-09-15T16:29:11.384Z,2.75
2022-09-15T16:31:39.281Z,2.25
2022-09-15T16:34:09.232Z,2.90
2022-09-15T16:36:36.869Z,2.45
2022-09-15T16:39:04.388Z,2.58
2022-09-15T16:41:38.968Z,2.60
2022-09-15T16:44:16.963Z,2.65
2022-09-15T16:46:44.644Z,2.22
2022-09-15T16:49:12.044Z,2.60
2022-09-15T16:51:39.376Z,2.40
2022-09-15T16:54:15.559Z,2.50
2022-09-15T16:56:43.465Z,2.90
2022-09-15T16:59:11.421Z,2.17
2022-09-15T17:01:39.239Z,2.47
2022-09-15T17:04:13.229Z,2.72
2022-09-15T17:06:40.837Z,2.40
2022-09-15T17:09:08.187Z,2.35
2022-09-15T17:11:35.728Z,2.58
2022-09-15T17:14:03.449Z,2.90
2022-09-15T17:16:30.881Z,2.80
2022-09-15T17:18:58.329Z,3.10
2022-09-15T17:21:26.244Z,3.13
2022-09-15T17:23:53.755Z,3.58
2022-09-15T17:26:24.678Z,3.30
2022-09-15T17:31:25.148Z,3.40
2022-09-15T17:33:53.312Z,3.78
2022-09-15T17:36:21.616Z,3.38
2022-09-15T17:38:49.258Z,3.60
2022-09-15T17:41:21.675Z,4.32
2022-09-15T17:43:52.259Z,4.22
2022-09-15T17:46:19.763Z,3.65
2022-09-15T17:48:47.117Z,4.18
2022-09-15T17:51:17.449Z,3.90
2022-09-15T17:53:47.101Z,4.10
2022-09-15T17:56:14.574Z,3.42
2022-09-15T17:58:43.388Z,3.88
2022-09-15T18:01:14.703Z,4.28
2022-09-15T18:03:44.273Z,3.90
2022-09-15T18:06:12.319Z,3.88
2022-09-15T18:08:40.938Z,3.85
2022-09-15T18:11:08.971Z,3.95
2022-09-15T18:13:37.487Z,4.07
2022-09-15T18:16:07.843Z,4.43
2022-09-15T18:18:35.658Z,4.13
2022-09-15T18:21:07.987Z,4.32
2022-09-15T18:23:37.607Z,4.78
2022-09-15T18:26:05.875Z,4.55
2022-09-15T18:28:33.382Z,4.72
2022-09-15T18:31:00.988Z,4.75
2022-09-15T18:33:29.380Z,5.13
2022-09-15T18:35:59.067Z,4.20
2022-09-15T18:38:27.107Z,4.32
2022-09-15T18:40:56.541Z,4.32
2022-09-15T18:43:26.808Z,4.57
2022-09-15T18:46:01.361Z,4.28
2022-09-15T18:48:32.262Z,3.88
2022-09-15T18:50:59.889Z,4.38
2022-09-15T18:53:27.798Z,4.40
2022-09-15T18:55:55.576Z,4.63
2022-09-15T18:58:23.855Z,4.32
2022-09-15T19:00:52.204Z,4.97
2022-09-15T19:03:19.881Z,5.22
2022-09-15T19:05:47.204Z,5.15
2022-09-15T19:08:15.320Z,4.60
2022-09-15T19:10:44.389Z,5.70
2022-09-15T19:13:14.334Z,5.28
2022-09-15T19:15:44.215Z,4.55
2022-09-15T19:18:12.046Z,5.55
2022-09-15T19:20:40.439Z,5.00
2022-09-15T19:23:09.217Z,4.75
2022-09-15T19:25:37.817Z,5.28
2022-09-15T19:28:05.349Z,4.78
2022-09-15T19:30:33.045Z,5.18
2022-09-15T19:33:02.701Z,5.55
2022-09-15T19:35:30.278Z,5.18
2022-09-15T19:37:57.767Z,5.45
2022-09-15T19:40:25.673Z,5.40
2022-09-15T19:42:53.180Z,5.63
2022-09-15T19:45:20.627Z,4.93
2022-09-15T19:47:48.680Z,5.93
2022-09-15T19:50:16.256Z,5.03
2022-09-15T19:52:44.457Z,4.80
2022-09-15T19:55:13.266Z,6.03
2022-09-15T19:57:42.190Z,5.43
2022-09-15T20:00:11.972Z,5.57
2022-09-15T20:02:40.470Z,5.53
2022-09-15T20:07:54.233Z,5.10
2022-09-15T20:10:21.806Z,5.35
2022-09-15T20:12:49.427Z,5.82
2022-09-15T20:15:17.243Z,5.63
2022-09-15T20:17:44.640Z,5.63
2022-09-15T20:20:12.277Z,5.03
2022-09-15T20:22:40.124Z,5.75
2022-09-15T20:25:07.676Z,5.32
2022-09-15T20:27:35.172Z,5.93
2022-09-15T20:30:03.014Z,5.72
2022-09-15T20:32:33.332Z,5.68
2022-09-15T20:35:01.343Z,4.75
2022-09-15T20:37:29.082Z,5.07
2022-09-15T20:39:57.548Z,5.25
2022-09-15T20:42:25.003Z,4.97
2022-09-15T20:44:52.922Z,5.20
2022-09-15T20:47:20.270Z,4.55
2022-09-15T20:49:47.740Z,5.38
2022-09-15T20:52:16.243Z,5.07
2022-09-15T20:54:44.324Z,4.68
2022-09-15T20:57:12.137Z,5.40
2022-09-15T20:59:40.281Z,4.75
2022-09-15T21:02:07.844Z,4.20
2022-09-15T21:04:35.520Z,5.40
2022-09-15T21:07:03.527Z,4.60
2022-09-15T21:09:30.885Z,4.53
2022-09-15T21:11:58.505Z,4.95
2022-09-15T21:14:26.348Z,5.28
2022-09-15T21:16:54.067Z,4.88
2022-09-15T21:19:21.583Z,4.70
2022-09-15T21:21:49.816Z,4.22
2022-09-15T21:24:17.325Z,4.40
2022-09-15T21:27:03.579Z,4.93
2022-09-15T21:29:31.714Z,5.03
2022-09-15T21:31:59.211Z,5.18
2022-09-15T21:34:27.277Z,5.05
2022-09-15T21:36:55.493Z,4.90
2022-09-15T21:39:23.817Z,5.15
2022-09-15T21:41:51.307Z,4.90
2022-09-15T21:44:19.498Z,4.85
2022-09-15T21:46:48.209Z,5.18
2022-09-15T21:49:18.266Z,5.25
2022-09-15T21:51:45.856Z,4.90
2022-09-15T21:54:14.152Z,4.85
2022-09-15T21:56:41.967Z,5.22
2022-09-15T21:59:11.028Z,5.13
2022-09-15T22:01:39.897Z,5.35
2022-09-15T22:04:09.002Z,5.20
2022-09-15T22:06:40.659Z,5.90
2022-09-15T22:09:10.647Z,6.30
2022-09-15T22:11:38.560Z,6.53
2022-09-15T22:14:09.812Z,5.50
2022-09-15T22:16:38.936Z,6.13
2022-09-15T22:19:08.258Z,5.68
2022-09-15T22:21:37.259Z,6.35
2022-09-15T22:24:07.183Z,5.68
2022-09-15T22:26:37.827Z,5.65
2022-09-15T22:29:06.138Z,5.70
2022-09-15T22:31:34.126Z,5.70
2022-09-15T22:34:02.040Z,5.38
2022-09-15T22:36:31.373Z,5.82
2022-09-15T22:39:05.055Z,5.80
2022-09-15T22:41:37.161Z,5.88
2022-09-15T22:44:05.917Z,6.55
2022-09-15T22:46:34.102Z,6.90
2022-09-15T22:49:01.998Z,6.95
2022-09-15T22:51:29.969Z,7.38
2022-09-15T22:53:57.861Z,7.30
2022-09-15T22:56:26.622Z,6.97
2022-09-15T22:58:55.849Z,7.20
2022-09-15T23:01:28.629Z,8.18
2022-09-15T23:03:58.565Z,8.30
2022-09-15T23:06:28.850Z,7.68
2022-09-15T23:08:59.944Z,7.57
2022-09-15T23:11:28.807Z,8.73
2022-09-15T23:13:56.631Z,7.72
2022-09-15T23:16:25.079Z,9.02
2022-09-15T23:18:54.370Z,8.82
2022-09-15T23:21:22.223Z,9.00
2022-09-15T23:23:50.133Z,9.13
2022-09-15T23:26:20.282Z,9.25
2022-09-15T23:28:49.324Z,9.48
2022-09-15T23:31:17.332Z,9.38
2022-09-15T23:33:45.653Z,9.15
2022-09-15T23:36:15.502Z,9.00
2022-09-15T23:38:44.556Z,9.57
2022-09-15T23:41:13.559Z,9.50
2022-09-15T23:43:41.284Z,10.95
2022-09-15T23:46:09.236Z,10.02
2022-09-15T23:48:37.335Z,10.50
2022-09-15T23:51:05.650Z,10.35
2022-09-15T23:53:33.214Z,10.00
2022-09-15T23:56:01.103Z,9.95
2022-09-15T23:58:28.549Z,10.02
